createdAt,value
2018-01-15T00:00:25.223Z,-2.15
2018-01-15T00:01:25.474Z,-2.14
2018-01-15T00:02:25.739Z,-2.13
2018-01-15T00:03:25.155Z,-2.08
2018-01-15T00:04:25.495Z,-2.12
2018-01-15T00:05:25.490Z,-2.09
2018-01-15T00:06:25.844Z,-2.12
2018-01-15T00:07:25.386Z,-2.11
2018-01-15T00:08:25.349Z,-2.08
2018-01-15T00:09:25.458Z,-2.07
2018-01-15T00:10:25.644Z,-2.11
2018-01-15T00:11:25.253Z,-2.13
2018-01-15T00:12:25.427Z,-2.12
2018-01-15T00:13:25.658Z,-2.07
2018-01-15T00:14:25.065Z,-2.12
2018-01-15T00:15:24.715Z,-2.06
2018-01-15T00:16:25.246Z,-2.09
2018-01-15T00:17:25.212Z,-2.13
2018-01-15T00:18:24.491Z,-2.18
2018-01-15T00:19:25.336Z,-2.17
2018-01-15T00:20:25.006Z,-2.15
2018-01-15T00:21:24.948Z,-2.1
2018-01-15T00:22:25.074Z,-2.16
2018-01-15T00:23:24.952Z,-2.13
2018-01-15T00:24:25.788Z,-2.18
2018-01-15T00:25:25.094Z,-2.11
2018-01-15T00:26:25.005Z,-2.15
2018-01-15T00:27:24.946Z,-2.15
2018-01-15T00:28:24.882Z,-2.11
2018-01-15T00:29:24.997Z,-2.09
2018-01-15T00:30:25.271Z,-2.13
2018-01-15T00:31:25.187Z,-2.14
2018-01-15T00:32:24.966Z,-2.13
2018-01-15T00:33:25.100Z,-2.08
2018-01-15T00:34:24.998Z,-2.11
2018-01-15T00:35:24.999Z,-2.11
2018-01-15T00:36:24.954Z,-2.12
2018-01-15T00:37:25.030Z,-2.1
2018-01-15T00:38:25.392Z,-2.16
2018-01-15T00:39:25.175Z,-2.2
2018-01-15T00:40:25.017Z,-2.11
2018-01-15T00:41:25.015Z,-2.17
2018-01-15T00:42:25.074Z,-2.12
2018-01-15T00:43:25.117Z,-2.16
2018-01-15T00:44:25.398Z,-2.17
2018-01-15T00:45:24.758Z,-2.14
2018-01-15T00:46:25.061Z,-2.11
2018-01-15T00:47:25.156Z,-2.12
2018-01-15T00:48:24.957Z,-2.14
2018-01-15T00:49:25.154Z,-2.09
2018-01-15T00:50:25.109Z,-2.06
2018-01-15T00:51:25.006Z,-2.11
2018-01-15T00:52:25.048Z,-2.14
2018-01-15T00:53:25.026Z,-2.07
2018-01-15T00:54:25.374Z,-2.1
2018-01-15T00:55:25.234Z,-2.14
2018-01-15T00:56:25.160Z,-2.15
2018-01-15T00:57:24.469Z,-2.14
2018-01-15T00:58:24.993Z,-2.09
2018-01-15T00:59:25.097Z,-2.19
2018-01-15T01:00:26.020Z,-2.15
2018-01-15T01:01:23.910Z,-2.12
2018-01-15T01:02:25.106Z,-2.14
2018-01-15T01:03:23.987Z,-2.12
2018-01-15T01:04:25.037Z,-2.14
2018-01-15T01:05:23.909Z,-2.14
2018-01-15T01:06:23.980Z,-2.12
2018-01-15T01:07:24.025Z,-2.13
2018-01-15T01:08:23.967Z,-2.12
2018-01-15T01:09:23.968Z,-2.13
2018-01-15T01:10:25.123Z,-2.1
2018-01-15T01:11:23.948Z,-2.11
2018-01-15T01:12:24.030Z,-2.08
2018-01-15T01:13:23.980Z,-2.08
2018-01-15T01:14:23.978Z,-2.07
2018-01-15T01:15:23.923Z,-2.07
2018-01-15T01:16:23.987Z,-2.06
2018-01-15T01:17:23.903Z,-2.08
2018-01-15T01:18:23.999Z,-2.12
2018-01-15T01:19:23.931Z,-2.1
2018-01-15T01:20:24.025Z,-2.1
2018-01-15T01:21:23.976Z,-2.12
2018-01-15T01:22:24.043Z,-2.11
2018-01-15T01:23:24.011Z,-2.11
2018-01-15T01:24:24.041Z,-2.12
2018-01-15T01:25:23.988Z,-2.1
2018-01-15T01:26:24.030Z,-2.12
2018-01-15T01:27:23.865Z,-2.11
2018-01-15T01:28:24.012Z,-2.1
2018-01-15T01:29:24.015Z,-2.14
2018-01-15T01:30:23.893Z,-2.1
2018-01-15T01:31:24.041Z,-2.09
2018-01-15T01:32:24.046Z,-2.11
2018-01-15T01:33:24.007Z,-2.14
2018-01-15T01:34:24.005Z,-2.11
2018-01-15T01:35:23.954Z,-2.11
2018-01-15T01:36:23.932Z,-2.09
2018-01-15T01:38:52.576Z,-2.13
2018-01-15T01:39:23.980Z,-2.13
2018-01-15T01:40:25.556Z,-2.14
2018-01-15T01:41:24.043Z,-2.13
2018-01-15T01:42:24.041Z,-2.09
2018-01-15T01:43:24.141Z,-2.14
2018-01-15T01:44:24.136Z,-2.13
2018-01-15T01:45:24.118Z,-2.15
2018-01-15T01:46:24.134Z,-2.15
2018-01-15T01:47:24.187Z,-2.12
2018-01-15T01:48:24.063Z,-2.12
2018-01-15T01:49:24.297Z,-2.11
2018-01-15T01:50:24.167Z,-2.04
2018-01-15T01:51:24.132Z,-2.13
2018-01-15T01:52:24.100Z,-2.13
2018-01-15T01:53:24.064Z,-2.14
2018-01-15T01:54:24.124Z,-2.12
2018-01-15T01:55:24.147Z,-2.1
2018-01-15T01:56:24.084Z,-2.13
2018-01-15T01:57:24.085Z,-2.14
2018-01-15T01:58:23.988Z,-2.12
2018-01-15T01:59:24.123Z,-2.13
2018-01-15T02:00:24.105Z,-2.11
2018-01-15T02:01:24.098Z,-2.14
2018-01-15T02:02:24.153Z,-2.14
2018-01-15T02:03:24.051Z,-2.14
2018-01-15T02:04:24.127Z,-2.1
2018-01-15T02:05:24.074Z,-2.15
2018-01-15T02:06:23.978Z,-2.11
2018-01-15T02:07:24.021Z,-2.11
2018-01-15T02:08:24.086Z,-2.14
2018-01-15T02:09:24.093Z,-2.1
2018-01-15T02:10:24.008Z,-2.14
2018-01-15T02:11:24.075Z,-2.14
2018-01-15T02:12:24.163Z,-2.15
2018-01-15T02:13:24.090Z,-2.12
2018-01-15T02:14:24.433Z,-2.16
2018-01-15T02:15:24.235Z,-2.13
2018-01-15T02:16:24.201Z,-2.12
2018-01-15T02:17:24.228Z,-2.13
2018-01-15T02:18:24.215Z,-2.13
2018-01-15T02:19:24.246Z,-2.13
2018-01-15T02:20:24.097Z,-2.17
2018-01-15T02:21:24.104Z,-2.19
2018-01-15T02:22:24.288Z,-2.18
2018-01-15T02:23:24.248Z,-2.16
2018-01-15T02:24:24.153Z,-2.15
2018-01-15T02:25:24.129Z,-2.21
2018-01-15T02:26:24.501Z,-2.22
2018-01-15T02:27:24.084Z,-2.22
2018-01-15T02:28:24.150Z,-2.17
2018-01-15T02:29:24.217Z,-2.17
2018-01-15T02:30:24.175Z,-2.17
2018-01-15T02:31:24.255Z,-2.2
2018-01-15T02:32:24.329Z,-2.16
2018-01-15T02:33:24.270Z,-2.18
2018-01-15T02:34:24.249Z,-2.13
2018-01-15T02:35:24.048Z,-2.19
2018-01-15T02:36:24.161Z,-2.2
2018-01-15T02:37:24.177Z,-2.16
2018-01-15T02:38:24.110Z,-2.2
2018-01-15T02:39:24.276Z,-2.13
2018-01-15T02:40:24.072Z,-2.2
2018-01-15T02:41:24.122Z,-2.16
2018-01-15T02:42:24.212Z,-2.19
2018-01-15T02:43:24.200Z,-2.22
2018-01-15T02:44:24.225Z,-2.21
2018-01-15T02:45:24.229Z,-2.17
2018-01-15T02:46:24.314Z,-2.21
2018-01-15T02:47:24.164Z,-2.23
2018-01-15T02:48:24.244Z,-2.18
2018-01-15T02:49:24.562Z,-2.18
2018-01-15T02:50:24.166Z,-2.19
2018-01-15T02:51:24.275Z,-2.17
2018-01-15T02:52:24.258Z,-2.18
2018-01-15T02:53:24.205Z,-2.17
2018-01-15T02:55:24.281Z,-2.22
2018-01-15T02:56:24.218Z,-2.18
2018-01-15T02:57:24.329Z,-2.19
2018-01-15T02:58:24.249Z,-2.19
2018-01-15T02:59:25.232Z,-2.18
2018-01-15T03:00:25.203Z,-2.18
2018-01-15T03:01:25.209Z,-2.17
2018-01-15T03:02:25.221Z,-2.19
2018-01-15T03:03:25.466Z,-2.19
2018-01-15T03:04:25.237Z,-2.2
2018-01-15T03:05:25.353Z,-2.15
2018-01-15T03:06:25.355Z,-2.2
2018-01-15T03:07:25.225Z,-2.22
2018-01-15T03:08:25.381Z,-2.18
2018-01-15T03:09:25.270Z,-2.19
2018-01-15T03:10:25.125Z,-2.13
2018-01-15T03:11:25.523Z,-2.19
2018-01-15T03:12:25.339Z,-2.15
2018-01-15T03:13:25.309Z,-2.13
2018-01-15T03:14:25.294Z,-2.09
2018-01-15T03:15:25.597Z,-2.08
2018-01-15T03:16:25.221Z,-2.15
2018-01-15T03:17:25.378Z,-2.13
2018-01-15T03:18:25.293Z,-2.16
2018-01-15T03:19:25.410Z,-2.14
2018-01-15T03:20:25.336Z,-2.17
2018-01-15T03:21:25.284Z,-2.14
2018-01-15T03:22:25.186Z,-2.08
2018-01-15T03:23:25.329Z,-2.11
2018-01-15T03:24:25.229Z,-2.1
2018-01-15T03:25:25.700Z,-2.1
2018-01-15T03:26:25.428Z,-2.1
2018-01-15T03:27:25.692Z,-2.1
2018-01-15T03:28:25.279Z,-2.1
2018-01-15T03:29:25.296Z,-2.07
2018-01-15T03:30:25.207Z,-2.07
2018-01-15T03:31:25.483Z,-2.07
2018-01-15T03:32:25.428Z,-2.05
2018-01-15T03:33:25.412Z,-2.08
2018-01-15T03:34:25.789Z,-2.1
2018-01-15T03:35:25.402Z,-2.05
2018-01-15T03:36:25.504Z,-2.05
2018-01-15T03:37:25.371Z,-2.03
2018-01-15T03:38:25.441Z,-2.03
2018-01-15T03:39:25.284Z,-2.05
2018-01-15T03:40:25.245Z,-2.09
2018-01-15T03:41:25.330Z,-2.04
2018-01-15T03:42:25.025Z,-2.05
2018-01-15T03:43:25.262Z,-2.04
2018-01-15T03:44:25.407Z,-1.99
2018-01-15T03:45:25.282Z,-2.02
2018-01-15T03:46:25.445Z,-2.02
2018-01-15T03:47:25.427Z,-2.02
2018-01-15T03:48:25.475Z,-2.03
2018-01-15T03:49:25.084Z,-2.04
2018-01-15T03:50:25.325Z,-2.03
2018-01-15T03:51:25.322Z,-2.01
2018-01-15T03:52:25.277Z,-2.06
2018-01-15T03:53:25.423Z,-2.05
2018-01-15T03:54:25.373Z,-2.03
2018-01-15T03:55:25.361Z,-2.05
2018-01-15T03:56:24.990Z,-1.98
2018-01-15T03:57:25.599Z,-2.04
2018-01-15T03:58:25.784Z,-2.05
2018-01-15T03:59:24.568Z,-2.03
2018-01-15T04:00:24.901Z,-1.99
2018-01-15T04:01:25.436Z,-1.98
2018-01-15T04:02:24.951Z,-1.98
2018-01-15T04:03:25.355Z,-1.99
2018-01-15T04:04:25.410Z,-1.98
2018-01-15T04:05:24.639Z,-2
2018-01-15T04:06:25.396Z,-2
2018-01-15T04:07:25.440Z,-2.02
2018-01-15T04:08:25.412Z,-2.04
2018-01-15T04:09:25.396Z,-2.01
2018-01-15T04:10:25.319Z,-2.02
2018-01-15T04:11:25.536Z,-2.07
2018-01-15T04:12:25.591Z,-2.08
2018-01-15T04:13:25.542Z,-2.1
2018-01-15T04:14:24.957Z,-2.09
2018-01-15T04:15:25.822Z,-2.05
2018-01-15T04:16:25.196Z,-2.08
2018-01-15T04:17:25.587Z,-2.11
2018-01-15T04:18:25.128Z,-2.1
2018-01-15T04:19:25.498Z,-2.1
2018-01-15T04:20:25.778Z,-2.08
2018-01-15T04:21:25.590Z,-2.07
2018-01-15T04:22:26.214Z,-2.08
2018-01-15T04:23:25.622Z,-2.1
2018-01-15T04:24:24.896Z,-2.09
2018-01-15T04:25:25.428Z,-2.1
2018-01-15T04:26:32.635Z,-2.06
2018-01-15T04:27:25.382Z,-2.04
2018-01-15T04:28:25.373Z,-2.06
2018-01-15T04:29:25.110Z,-2.06
2018-01-15T04:30:25.464Z,-2.11
2018-01-15T04:31:25.711Z,-2.12
2018-01-15T04:32:25.019Z,-2.1
2018-01-15T04:33:25.545Z,-2.11
2018-01-15T04:34:25.486Z,-2.1
2018-01-15T04:35:25.566Z,-2.1
2018-01-15T04:36:25.910Z,-2.07
2018-01-15T04:37:24.978Z,-2.05
2018-01-15T04:38:25.472Z,-2.06
2018-01-15T04:39:26.026Z,-2.06
2018-01-15T04:40:25.557Z,-2.06
2018-01-15T04:41:25.375Z,-2.06
2018-01-15T04:42:25.501Z,-2.03
2018-01-15T04:43:24.626Z,-2.07
2018-01-15T04:44:24.564Z,-2.06
2018-01-15T04:45:24.440Z,-2.12
2018-01-15T04:46:24.473Z,-2.08
2018-01-15T04:47:24.469Z,-2.09
2018-01-15T04:48:24.132Z,-2.07
2018-01-15T04:49:24.587Z,-2.08
2018-01-15T04:50:24.407Z,-2.07
2018-01-15T04:51:24.503Z,-2.12
2018-01-15T04:52:24.310Z,-2.1
2018-01-15T04:53:24.549Z,-2.14
2018-01-15T04:54:24.453Z,-2.13
2018-01-15T04:55:25.300Z,-2.14
2018-01-15T04:56:24.438Z,-2.15
2018-01-15T04:57:24.500Z,-2.12
2018-01-15T04:58:24.097Z,-2.09
2018-01-15T04:59:25.031Z,-2.12
2018-01-15T05:00:24.623Z,-2.1
2018-01-15T05:01:24.620Z,-2.12
2018-01-15T05:02:24.851Z,-2.1
2018-01-15T05:03:24.444Z,-2.12
2018-01-15T05:04:24.572Z,-2.1
2018-01-15T05:05:24.378Z,-2.08
2018-01-15T05:06:24.456Z,-2.11
2018-01-15T05:07:24.788Z,-2.07
2018-01-15T05:08:24.403Z,-2.07
2018-01-15T05:09:24.452Z,-2.01
2018-01-15T05:10:24.623Z,-2.07
2018-01-15T05:11:24.376Z,-2.05
2018-01-15T05:12:24.487Z,-2.07
2018-01-15T05:13:24.626Z,-1.98
2018-01-15T05:14:24.354Z,-1.99
2018-01-15T05:15:24.520Z,-1.93
2018-01-15T05:16:24.438Z,-1.99
2018-01-15T05:17:24.507Z,-1.95
2018-01-15T05:18:24.764Z,-1.96
2018-01-15T05:19:24.436Z,-1.95
2018-01-15T05:20:24.977Z,-1.94
2018-01-15T05:21:24.440Z,-1.99
2018-01-15T05:22:24.550Z,-1.98
2018-01-15T05:23:24.431Z,-2.01
2018-01-15T05:24:24.478Z,-1.96
2018-01-15T05:25:24.561Z,-1.98
2018-01-15T05:26:24.590Z,-1.99
2018-01-15T05:27:24.617Z,-1.96
2018-01-15T05:28:24.150Z,-1.99
2018-01-15T05:29:25.506Z,-1.96
2018-01-15T05:30:24.127Z,-2
2018-01-15T05:31:24.352Z,-2.03
2018-01-15T05:32:24.131Z,-1.99
2018-01-15T05:33:24.620Z,-2.02
2018-01-15T05:34:24.539Z,-2.01
2018-01-15T05:35:25.053Z,-2.03
2018-01-15T05:36:24.112Z,-1.98
2018-01-15T05:37:24.440Z,-2.04
2018-01-15T05:38:24.161Z,-2.05
2018-01-15T05:39:24.745Z,-2.07
2018-01-15T05:40:26.695Z,-2.09
2018-01-15T05:41:24.467Z,-2.11
2018-01-15T05:42:24.132Z,-2.08
2018-01-15T05:43:25.206Z,-2.08
2018-01-15T05:44:24.629Z,-2.09
2018-01-15T05:45:24.687Z,-2.08
2018-01-15T05:46:24.677Z,-2.1
2018-01-15T05:47:24.230Z,-2.08
2018-01-15T05:48:24.328Z,-2.09
2018-01-15T05:49:24.546Z,-2.12
2018-01-15T05:50:24.144Z,-2.07
2018-01-15T05:51:24.680Z,-2.06
2018-01-15T05:52:24.209Z,-2.09
2018-01-15T05:53:24.197Z,-2.07
2018-01-15T05:54:24.235Z,-2.06
2018-01-15T05:55:24.517Z,-2.14
2018-01-15T05:56:25.883Z,-2.12
2018-01-15T05:57:24.128Z,-2.12
2018-01-15T05:58:24.990Z,-2.14
2018-01-15T05:59:24.185Z,-2.09
2018-01-15T06:00:24.595Z,-2.14
2018-01-15T06:01:24.579Z,-2.14
2018-01-15T06:02:24.567Z,-2.13
2018-01-15T06:03:24.549Z,-2.15
2018-01-15T06:04:24.551Z,-2.14
2018-01-15T06:05:24.144Z,-2.15
2018-01-15T06:06:24.564Z,-2.18
2018-01-15T06:07:24.785Z,-2.14
2018-01-15T06:08:24.827Z,-2.15
2018-01-15T06:09:24.645Z,-2.15
2018-01-15T06:10:24.751Z,-2.15
2018-01-15T06:11:24.761Z,-2.15
2018-01-15T06:12:24.459Z,-2.15
2018-01-15T06:13:24.817Z,-2.15
2018-01-15T06:14:23.664Z,-2.15
2018-01-15T06:15:23.603Z,-2.19
2018-01-15T06:16:23.617Z,-2.2
2018-01-15T06:17:23.602Z,-2.14
2018-01-15T06:18:23.623Z,-2.16
2018-01-15T06:19:23.649Z,-2.19
2018-01-15T06:20:23.527Z,-2.16
2018-01-15T06:21:23.490Z,-2.19
2018-01-15T06:22:23.638Z,-2.2
2018-01-15T06:23:23.564Z,-2.18
2018-01-15T06:24:23.556Z,-2.22
2018-01-15T06:25:23.550Z,-2.22
2018-01-15T06:26:23.662Z,-2.2
2018-01-15T06:27:23.620Z,-2.25
2018-01-15T06:28:23.713Z,-2.25
2018-01-15T06:29:23.594Z,-2.24
2018-01-15T06:30:23.590Z,-2.26
2018-01-15T06:31:23.630Z,-2.26
2018-01-15T06:32:23.607Z,-2.25
2018-01-15T06:33:23.733Z,-2.27
2018-01-15T06:34:23.585Z,-2.23
2018-01-15T06:35:23.577Z,-2.14
2018-01-15T06:36:23.470Z,-2.19
2018-01-15T06:37:24.157Z,-2.21
2018-01-15T06:38:23.594Z,-2.24
2018-01-15T06:39:23.658Z,-2.24
2018-01-15T06:40:23.653Z,-2.24
2018-01-15T06:41:23.660Z,-2.2
2018-01-15T06:42:23.680Z,-2.21
2018-01-15T06:43:23.826Z,-2.16
2018-01-15T06:44:23.635Z,-2.22
2018-01-15T06:45:23.728Z,-2.24
2018-01-15T06:46:23.797Z,-2.23
2018-01-15T06:47:23.611Z,-2.16
2018-01-15T06:48:23.746Z,-2.2
2018-01-15T06:49:23.755Z,-2.2
2018-01-15T06:50:23.761Z,-2.19
2018-01-15T06:51:23.655Z,-2.18
2018-01-15T06:52:23.777Z,-2.14
2018-01-15T06:53:23.737Z,-2.18
2018-01-15T06:54:23.668Z,-2.17
2018-01-15T06:55:23.802Z,-2.14
2018-01-15T06:56:23.736Z,-2.13
2018-01-15T06:57:23.719Z,-2.09
2018-01-15T06:58:23.685Z,-2.08
2018-01-15T06:59:23.796Z,-2.12
2018-01-15T07:00:23.762Z,-2.08
2018-01-15T07:01:23.799Z,-2.05
2018-01-15T07:02:23.707Z,-2.05
2018-01-15T07:03:23.770Z,-2.05
2018-01-15T07:04:23.660Z,-2.03
2018-01-15T07:05:23.988Z,-2.06
2018-01-15T07:06:23.704Z,-1.98
2018-01-15T07:07:24.328Z,-1.99
2018-01-15T07:08:23.756Z,-2.06
2018-01-15T07:09:23.671Z,-2
2018-01-15T07:10:23.758Z,-1.99
2018-01-15T07:11:23.959Z,-1.96
2018-01-15T07:12:23.762Z,-2.02
2018-01-15T07:13:23.894Z,-2.04
2018-01-15T07:14:23.815Z,-2.02
2018-01-15T07:15:23.782Z,-1.97
2018-01-15T07:16:23.850Z,-1.94
2018-01-15T07:17:23.776Z,-1.97
2018-01-15T07:18:23.782Z,-1.94
2018-01-15T07:19:23.753Z,-1.98
2018-01-15T07:20:24.409Z,-2
2018-01-15T07:21:24.153Z,-1.96
2018-01-15T07:22:23.751Z,-1.96
2018-01-15T07:23:23.784Z,-1.96
2018-01-15T07:24:23.775Z,-1.95
2018-01-15T07:25:23.848Z,-1.98
2018-01-15T07:26:23.899Z,-1.95
2018-01-15T07:27:23.862Z,-1.94
2018-01-15T07:28:23.844Z,-1.94
2018-01-15T07:29:23.799Z,-1.93
2018-01-15T07:30:23.841Z,-1.91
2018-01-15T07:31:23.764Z,-1.92
2018-01-15T07:32:23.975Z,-1.87
2018-01-15T07:33:24.035Z,-1.86
2018-01-15T07:34:23.804Z,-1.88
2018-01-15T07:35:23.840Z,-1.9
2018-01-15T07:36:23.837Z,-1.88
2018-01-15T07:37:23.815Z,-1.85
2018-01-15T07:38:24.210Z,-1.81
2018-01-15T07:39:23.728Z,-1.8
2018-01-15T07:40:23.772Z,-1.76
2018-01-15T07:41:23.889Z,-1.75
2018-01-15T07:42:23.868Z,-1.77
2018-01-15T07:43:23.938Z,-1.76
2018-01-15T07:44:23.807Z,-1.74
2018-01-15T07:45:23.782Z,-1.75
2018-01-15T07:46:23.829Z,-1.71
2018-01-15T07:47:23.896Z,-1.75
2018-01-15T07:48:23.902Z,-1.72
2018-01-15T07:49:24.478Z,-1.69
2018-01-15T07:50:23.760Z,-1.69
2018-01-15T07:51:23.902Z,-1.68
2018-01-15T07:52:23.816Z,-1.7
2018-01-15T07:53:23.905Z,-1.62
2018-01-15T07:54:24.063Z,-1.63
2018-01-15T07:55:23.790Z,-1.68
2018-01-15T07:56:23.896Z,-1.68
2018-01-15T07:57:23.878Z,-1.68
2018-01-15T07:58:23.791Z,-1.64
2018-01-15T07:59:23.905Z,-1.64
2018-01-15T08:00:23.928Z,-1.63
2018-01-15T08:01:23.821Z,-1.63
2018-01-15T08:02:23.934Z,-1.62
2018-01-15T08:03:23.829Z,-1.68
2018-01-15T08:04:23.796Z,-1.62
2018-01-15T08:05:23.874Z,-1.6
2018-01-15T08:06:23.903Z,-1.63
2018-01-15T08:07:23.933Z,-1.63
2018-01-15T08:08:23.933Z,-1.59
2018-01-15T08:09:23.849Z,-1.6
2018-01-15T08:10:23.939Z,-1.57
2018-01-15T08:11:24.366Z,-1.57
2018-01-15T08:12:23.804Z,-1.55
2018-01-15T08:13:24.028Z,-1.51
2018-01-15T08:14:24.041Z,-1.53
2018-01-15T08:15:24.000Z,-1.55
2018-01-15T08:16:23.827Z,-1.55
2018-01-15T08:17:23.929Z,-1.54
2018-01-15T08:18:24.024Z,-1.52
2018-01-15T08:19:23.963Z,-1.49
2018-01-15T08:20:24.046Z,-1.51
2018-01-15T08:21:23.947Z,-1.51
2018-01-15T08:22:23.955Z,-1.54
2018-01-15T08:23:24.010Z,-1.5
2018-01-15T08:24:23.952Z,-1.46
2018-01-15T08:25:23.952Z,-1.46
2018-01-15T08:26:23.938Z,-1.47
2018-01-15T08:27:23.968Z,-1.45
2018-01-15T08:28:23.920Z,-1.45
2018-01-15T08:29:23.913Z,-1.44
2018-01-15T08:30:24.076Z,-1.47
2018-01-15T08:31:23.867Z,-1.4
2018-01-15T08:32:23.845Z,-1.43
2018-01-15T08:33:23.951Z,-1.41
2018-01-15T08:34:24.064Z,-1.43
2018-01-15T08:35:24.037Z,-1.41
2018-01-15T08:36:23.895Z,-1.43
2018-01-15T08:37:23.983Z,-1.42
2018-01-15T08:38:24.004Z,-1.41
2018-01-15T08:39:24.007Z,-1.39
2018-01-15T08:40:24.495Z,-1.44
2018-01-15T08:41:24.163Z,-1.45
2018-01-15T08:42:23.951Z,-1.44
2018-01-15T08:43:24.084Z,-1.43
2018-01-15T08:44:24.174Z,-1.45
2018-01-15T08:45:23.857Z,-1.45
2018-01-15T08:46:23.901Z,-1.43
2018-01-15T08:47:24.251Z,-1.41
2018-01-15T08:48:24.067Z,-1.39
2018-01-15T08:49:23.980Z,-1.32
2018-01-15T08:50:23.962Z,-1.33
2018-01-15T08:51:23.959Z,-1.31
2018-01-15T08:52:24.385Z,-1.34
2018-01-15T08:53:24.100Z,-1.33
2018-01-15T08:54:24.005Z,-1.36
2018-01-15T08:55:24.080Z,-1.37
2018-01-15T08:56:24.043Z,-1.34
2018-01-15T08:57:23.897Z,-1.33
2018-01-15T08:58:23.983Z,-1.32
2018-01-15T08:59:24.146Z,-1.31
2018-01-15T09:00:23.998Z,-1.3
2018-01-15T09:01:23.988Z,-1.33
2018-01-15T09:02:24.043Z,-1.29
2018-01-15T09:03:24.030Z,-1.3
2018-01-15T09:04:23.983Z,-1.28
2018-01-15T09:05:24.017Z,-1.3
2018-01-15T09:06:23.974Z,-1.28
2018-01-15T09:07:24.120Z,-1.3
2018-01-15T09:08:24.036Z,-1.31
2018-01-15T09:09:24.048Z,-1.33
2018-01-15T09:10:23.975Z,-1.3
2018-01-15T09:11:23.944Z,-1.29
2018-01-15T09:12:24.007Z,-1.29
2018-01-15T09:13:24.257Z,-1.25
2018-01-15T09:14:24.008Z,-1.21
2018-01-15T09:15:24.172Z,-1.27
2018-01-15T09:16:24.196Z,-1.23
2018-01-15T09:17:24.190Z,-1.25
2018-01-15T09:18:24.148Z,-1.23
2018-01-15T09:19:24.103Z,-1.24
2018-01-15T09:20:24.059Z,-1.24
2018-01-15T09:21:24.173Z,-1.23
2018-01-15T09:22:24.149Z,-1.22
2018-01-15T09:23:24.237Z,-1.2
2018-01-15T09:24:24.204Z,-1.16
2018-01-15T09:25:24.062Z,-1.22
2018-01-15T09:26:24.122Z,-1.25
2018-01-15T09:27:24.183Z,-1.23
2018-01-15T09:28:24.235Z,-1.2
2018-01-15T09:29:24.161Z,-1.15
2018-01-15T09:30:24.076Z,-1.14
2018-01-15T09:31:24.096Z,-1.14
2018-01-15T09:32:24.138Z,-1.14
2018-01-15T09:33:24.060Z,-1.1
2018-01-15T09:34:24.043Z,-1.11
2018-01-15T09:35:24.009Z,-1.04
2018-01-15T09:36:24.039Z,-1.06
2018-01-15T09:37:24.177Z,-1.08
2018-01-15T09:38:24.077Z,-1.12
2018-01-15T09:39:24.261Z,-1.14
2018-01-15T09:40:24.204Z,-1.08
2018-01-15T09:41:24.020Z,-1.1
2018-01-15T09:42:24.096Z,-1.11
2018-01-15T09:43:24.190Z,-1.1
2018-01-15T09:44:24.273Z,-1.11
2018-01-15T09:45:24.202Z,-1.08
2018-01-15T09:46:24.222Z,-1.11
2018-01-15T09:47:24.337Z,-1.06
2018-01-15T09:48:24.300Z,-1.08
2018-01-15T09:49:24.326Z,-1.13
2018-01-15T09:50:24.297Z,-1.11
2018-01-15T09:51:24.240Z,-1.1
2018-01-15T09:52:24.236Z,-1.07
2018-01-15T09:53:24.320Z,-1.1
2018-01-15T09:54:24.326Z,-1.07
2018-01-15T09:55:24.438Z,-1.03
2018-01-15T09:56:24.173Z,-1.08
2018-01-15T09:57:24.314Z,-1.11
2018-01-15T09:58:24.265Z,-1.07
2018-01-15T09:59:24.341Z,-1.05
2018-01-15T10:00:24.350Z,-1.04
2018-01-15T10:01:24.313Z,-1.05
2018-01-15T10:02:24.286Z,-1.05
2018-01-15T10:03:24.316Z,-1.07
2018-01-15T10:04:24.260Z,-1.07
2018-01-15T10:05:24.584Z,-1.05
2018-01-15T10:06:24.335Z,-1.02
2018-01-15T10:07:24.253Z,-0.98
2018-01-15T10:08:24.300Z,-0.97
2018-01-15T10:09:24.400Z,-1.04
2018-01-15T10:10:24.315Z,-1.06
2018-01-15T10:11:24.752Z,-1.07
2018-01-15T10:12:24.448Z,-1.07
2018-01-15T10:13:24.801Z,-1.09
2018-01-15T10:14:23.612Z,-1.04
2018-01-15T10:15:23.732Z,-1.03
2018-01-15T10:16:23.599Z,-1.05
2018-01-15T10:17:23.803Z,-1.06
2018-01-15T10:18:23.732Z,-1.05
2018-01-15T10:19:23.682Z,-1.03
2018-01-15T10:20:23.747Z,-1.03
2018-01-15T10:21:23.632Z,-1.02
2018-01-15T10:22:23.640Z,-0.99
2018-01-15T10:23:23.581Z,-1
2018-01-15T10:24:23.610Z,-0.98
2018-01-15T10:25:23.675Z,-0.98
2018-01-15T10:26:23.754Z,-1.02
2018-01-15T10:27:23.609Z,-1.01
2018-01-15T10:28:23.614Z,-1
2018-01-15T10:29:23.727Z,-0.99
2018-01-15T10:30:23.550Z,-1.03
2018-01-15T10:31:23.751Z,-1.07
2018-01-15T10:32:23.538Z,-1.05
2018-01-15T10:33:23.705Z,-1.05
2018-01-15T10:34:23.470Z,-0.98
2018-01-15T10:35:23.444Z,-1
2018-01-15T10:36:23.648Z,-1.01
2018-01-15T10:37:23.603Z,-0.97
2018-01-15T10:38:23.608Z,-0.97
2018-01-15T10:39:23.568Z,-0.95
2018-01-15T10:40:23.573Z,-0.99
2018-01-15T10:41:23.591Z,-0.94
2018-01-15T10:42:23.723Z,-0.95
2018-01-15T10:43:23.668Z,-0.92
2018-01-15T10:44:23.746Z,-0.94
2018-01-15T10:45:23.734Z,-0.95
2018-01-15T10:46:23.734Z,-0.94
2018-01-15T10:47:23.734Z,-0.9
2018-01-15T10:48:23.750Z,-0.88
2018-01-15T10:49:23.764Z,-0.88
2018-01-15T10:50:23.871Z,-0.84
2018-01-15T10:51:23.836Z,-0.85
2018-01-15T10:52:23.783Z,-0.82
2018-01-15T10:53:23.850Z,-0.82
2018-01-15T10:54:23.897Z,-0.81
2018-01-15T10:55:23.727Z,-0.78
2018-01-15T10:56:23.710Z,-0.77
2018-01-15T10:57:23.701Z,-0.8
2018-01-15T10:58:23.884Z,-0.83
2018-01-15T10:59:23.749Z,-0.78
2018-01-15T11:00:23.580Z,-0.79
2018-01-15T11:01:23.819Z,-0.78
2018-01-15T11:02:23.799Z,-0.8
2018-01-15T11:03:23.842Z,-0.82
2018-01-15T11:04:23.751Z,-0.8
2018-01-15T11:05:23.846Z,-0.79
2018-01-15T11:06:23.865Z,-0.8
2018-01-15T11:07:23.842Z,-0.73
2018-01-15T11:08:23.826Z,-0.77
2018-01-15T11:09:23.753Z,-0.81
2018-01-15T11:10:23.687Z,-0.77
2018-01-15T11:11:23.775Z,-0.76
2018-01-15T11:12:23.794Z,-0.73
2018-01-15T11:13:23.806Z,-0.72
2018-01-15T11:14:23.851Z,-0.74
2018-01-15T11:15:23.742Z,-0.7
2018-01-15T11:16:23.667Z,-0.7
2018-01-15T11:17:23.694Z,-0.69
2018-01-15T11:18:23.714Z,-0.74
2018-01-15T11:19:23.865Z,-0.72
2018-01-15T11:20:23.744Z,-0.71
2018-01-15T11:21:23.839Z,-0.7
2018-01-15T11:22:23.839Z,-0.73
2018-01-15T11:23:23.673Z,-0.69
2018-01-15T11:24:23.746Z,-0.64
2018-01-15T11:25:23.928Z,-0.62
2018-01-15T11:26:23.802Z,-0.6
2018-01-15T11:27:23.674Z,-0.6
2018-01-15T11:28:23.771Z,-0.6
2018-01-15T11:29:23.685Z,-0.55
2018-01-15T11:30:23.989Z,-0.57
2018-01-15T11:31:23.739Z,-0.58
2018-01-15T11:32:23.897Z,-0.59
2018-01-15T11:33:23.856Z,-0.58
2018-01-15T11:34:23.860Z,-0.59
2018-01-15T11:35:23.950Z,-0.51
2018-01-15T11:36:23.928Z,-0.55
2018-01-15T11:37:23.810Z,-0.51
2018-01-15T11:38:23.840Z,-0.54
2018-01-15T11:39:23.755Z,-0.53
2018-01-15T11:40:23.751Z,-0.51
2018-01-15T11:41:23.902Z,-0.53
2018-01-15T11:42:23.775Z,-0.43
2018-01-15T11:43:23.755Z,-0.5
2018-01-15T11:44:23.932Z,-0.45
2018-01-15T11:45:23.838Z,-0.47
2018-01-15T11:46:24.231Z,-0.49
2018-01-15T11:47:23.809Z,-0.53
2018-01-15T11:48:23.826Z,-0.52
2018-01-15T11:49:23.881Z,-0.52
2018-01-15T11:50:23.898Z,-0.54
2018-01-15T11:51:23.962Z,-0.51
2018-01-15T11:52:23.842Z,-0.48
2018-01-15T11:53:23.826Z,-0.49
2018-01-15T11:54:23.917Z,-0.5
2018-01-15T11:55:23.682Z,-0.5
2018-01-15T11:56:23.770Z,-0.51
2018-01-15T11:57:23.980Z,-0.51
2018-01-15T11:58:23.846Z,-0.49
2018-01-15T11:59:23.777Z,-0.48
2018-01-15T12:00:23.795Z,-0.47
2018-01-15T12:01:23.866Z,-0.43
2018-01-15T12:02:23.879Z,-0.48
2018-01-15T12:03:23.965Z,-0.45
2018-01-15T12:04:23.874Z,-0.45
2018-01-15T12:05:23.882Z,-0.43
2018-01-15T12:06:23.757Z,-0.44
2018-01-15T12:07:23.891Z,-0.43
2018-01-15T12:08:24.030Z,-0.41
2018-01-15T12:09:23.925Z,-0.38
2018-01-15T12:10:23.852Z,-0.35
2018-01-15T12:11:23.802Z,-0.36
2018-01-15T12:12:23.682Z,-0.37
2018-01-15T12:13:23.934Z,-0.38
2018-01-15T12:14:23.903Z,-0.4
2018-01-15T12:15:23.898Z,-0.37
2018-01-15T12:16:23.814Z,-0.36
2018-01-15T12:17:23.925Z,-0.33
2018-01-15T12:18:23.824Z,-0.3
2018-01-15T12:19:23.754Z,-0.32
2018-01-15T12:20:23.878Z,-0.32
2018-01-15T12:21:24.044Z,-0.25
2018-01-15T12:22:23.864Z,-0.23
2018-01-15T12:23:23.916Z,-0.21
2018-01-15T12:24:23.952Z,-0.21
2018-01-15T12:25:23.888Z,-0.2
2018-01-15T12:26:23.942Z,-0.23
2018-01-15T12:27:23.866Z,-0.22
2018-01-15T12:28:23.850Z,-0.23
2018-01-15T12:29:24.277Z,-0.18
2018-01-15T12:30:23.945Z,-0.25
2018-01-15T12:31:23.927Z,-0.26
2018-01-15T12:32:23.937Z,-0.18
2018-01-15T12:33:23.995Z,-0.2
2018-01-15T12:34:24.149Z,-0.15
2018-01-15T12:35:23.801Z,-0.19
2018-01-15T12:36:23.895Z,-0.2
2018-01-15T12:37:23.764Z,-0.21
2018-01-15T12:38:23.838Z,-0.23
2018-01-15T12:39:24.190Z,-0.24
2018-01-15T12:40:23.933Z,-0.24
2018-01-15T12:41:23.983Z,-0.24
2018-01-15T12:42:23.882Z,-0.24
2018-01-15T12:43:23.778Z,-0.21
2018-01-15T12:44:24.122Z,-0.21
2018-01-15T12:45:24.119Z,-0.23
2018-01-15T12:46:23.948Z,-0.17
2018-01-15T12:47:23.963Z,-0.16
2018-01-15T12:48:23.890Z,-0.14
2018-01-15T12:49:23.912Z,-0.13
2018-01-15T12:50:24.025Z,-0.13
2018-01-15T12:51:24.002Z,-0.13
2018-01-15T12:52:23.951Z,-0.15
2018-01-15T12:53:24.017Z,-0.14
2018-01-15T12:54:23.933Z,-0.14
2018-01-15T12:55:24.058Z,-0.14
2018-01-15T12:56:24.030Z,-0.13
2018-01-15T12:57:23.996Z,-0.15
2018-01-15T12:58:23.978Z,-0.12